sensor_id;sensor_type;location;lat;lon;timestamp;pressure;altitude;pressure_sealevel;temperature;humidity
53262;BME280;39658;51.090;-1.786;2022-10-03T00:00:26;102048.16;;;8.21;100.00
53262;BME280;39658;51.090;-1.786;2022-10-03T00:03:21;102047.34;;;8.33;100.00
53262;BME280;39658;51.090;-1.786;2022-10-03T00:06:05;102047.09;;;8.24;100.00
53262;BME280;39658;51.090;-1.786;2022-10-03T00:09:02;102063.34;;;8.06;100.00
53262;BME280;39658;51.090;-1.786;2022-10-03T00:11:38;102053.34;;;7.84;100.00
53262;BME280;39658;51.090;-1.786;2022-10-03T00:14:17;102054.81;;;7.89;100.00
53262;BME280;39658;51.090;-1.786;2022-10-03T00:16:49;102054.81;;;7.89;100.00
53262;BME280;39658;51.090;-1.786;2022-10-03T00:19:25;102060.44;;;7.84;100.00
53262;BME280;39658;51.090;-1.786;2022-10-03T00:22:03;102063.94;;;7.72;100.00
53262;BME280;39658;51.090;-1.786;2022-10-03T00:24:43;102066.28;;;7.89;100.00
53262;BME280;39658;51.090;-1.786;2022-10-03T00:27:17;102069.34;;;7.83;100.00
53262;BME280;39658;51.090;-1.786;2022-10-03T00:30:03;102071.66;;;7.75;100.00
53262;BME280;39658;51.090;-1.786;2022-10-03T00:32:41;102074.19;;;7.64;100.00
53262;BME280;39658;51.090;-1.786;2022-10-03T00:35:29;102073.88;;;7.68;100.00
53262;BME280;39658;51.090;-1.786;2022-10-03T00:38:10;102071.09;;;7.57;100.00
53262;BME280;39658;51.090;-1.786;2022-10-03T00:41:03;102069.34;;;7.43;100.00
53262;BME280;39658;51.090;-1.786;2022-10-03T00:46:41;102076.13;;;7.35;100.00
53262;BME280;39658;51.090;-1.786;2022-10-03T00:49:52;102087.00;;;7.30;100.00
53262;BME280;39658;51.090;-1.786;2022-10-03T00:52:47;102090.81;;;7.26;100.00
53262;BME280;39658;51.090;-1.786;2022-10-03T00:55:27;102083.06;;;7.23;100.00
53262;BME280;39658;51.090;-1.786;2022-10-03T00:58:09;102078.63;;;7.23;100.00
53262;BME280;39658;51.090;-1.786;2022-10-03T01:00:48;102081.84;;;7.14;100.00
53262;BME280;39658;51.090;-1.786;2022-10-03T01:03:37;102090.16;;;7.08;100.00
53262;BME280;39658;51.090;-1.786;2022-10-03T01:06:26;102092.63;;;7.11;100.00
53262;BME280;39658;51.090;-1.786;2022-10-03T01:09:13;102084.03;;;7.08;100.00
53262;BME280;39658;51.090;-1.786;2022-10-03T01:11:52;102093.97;;;7.04;100.00
53262;BME280;39658;51.090;-1.786;2022-10-03T01:14:38;102088.47;;;7.07;100.00
53262;BME280;39658;51.090;-1.786;2022-10-03T01:17:15;102092.22;;;7.17;100.00
53262;BME280;39658;51.090;-1.786;2022-10-03T01:20:00;102092.97;;;7.19;100.00
53262;BME280;39658;51.090;-1.786;2022-10-03T01:22:47;102092.81;;;7.22;100.00
53262;BME280;39658;51.090;-1.786;2022-10-03T01:25:30;102091.06;;;7.36;100.00
53262;BME280;39658;51.090;-1.786;2022-10-03T01:28:24;102088.84;;;7.42;100.00
53262;BME280;39658;51.090;-1.786;2022-10-03T01:31:17;102088.81;;;7.30;100.00
53262;BME280;39658;51.090;-1.786;2022-10-03T01:33:49;102089.75;;;7.29;100.00
53262;BME280;39658;51.090;-1.786;2022-10-03T01:36:24;102087.84;;;7.31;100.00
53262;BME280;39658;51.090;-1.786;2022-10-03T01:38:56;102080.22;;;7.26;100.00
53262;BME280;39658;51.090;-1.786;2022-10-03T01:41:31;102075.03;;;7.25;100.00
53262;BME280;39658;51.090;-1.786;2022-10-03T01:44:10;102073.97;;;7.27;100.00
53262;BME280;39658;51.090;-1.786;2022-10-03T01:46:41;102067.53;;;7.17;100.00
53262;BME280;39658;51.090;-1.786;2022-10-03T01:49:18;102066.44;;;7.07;100.00
53262;BME280;39658;51.090;-1.786;2022-10-03T01:51:51;102072.91;;;7.03;100.00
53262;BME280;39658;51.090;-1.786;2022-10-03T01:54:29;102079.63;;;6.94;100.00
53262;BME280;39658;51.090;-1.786;2022-10-03T01:57:07;102076.13;;;6.94;100.00
53262;BME280;39658;51.090;-1.786;2022-10-03T01:59:43;102071.25;;;6.87;100.00
53262;BME280;39658;51.090;-1.786;2022-10-03T02:02:19;102061.75;;;6.98;100.00
53262;BME280;39658;51.090;-1.786;2022-10-03T02:04:51;102065.56;;;6.94;100.00
53262;BME280;39658;51.090;-1.786;2022-10-03T02:07:25;102072.00;;;6.89;100.00
53262;BME280;39658;51.090;-1.786;2022-10-03T02:10:04;102064.34;;;6.85;100.00
53262;BME280;39658;51.090;-1.786;2022-10-03T02:12:35;102052.91;;;6.84;100.00
53262;BME280;39658;51.090;-1.786;2022-10-03T02:15:14;102057.81;;;6.90;100.00
53262;BME280;39658;51.090;-1.786;2022-10-03T02:17:50;102056.09;;;6.89;100.00
53262;BME280;39658;51.090;-1.786;2022-10-03T02:20:23;102054.22;;;6.77;100.00
53262;BME280;39658;51.090;-1.786;2022-10-03T02:22:52;102055.56;;;6.70;100.00
53262;BME280;39658;51.090;-1.786;2022-10-03T02:25:24;102057.47;;;6.68;100.00
53262;BME280;39658;51.090;-1.786;2022-10-03T02:31:21;102058.69;;;6.63;100.00
53262;BME280;39658;51.090;-1.786;2022-10-03T02:34:06;102068.53;;;6.60;100.00
53262;BME280;39658;51.090;-1.786;2022-10-03T02:36:59;102064.53;;;6.68;100.00
53262;BME280;39658;51.090;-1.786;2022-10-03T02:46:08;102057.16;;;6.73;100.00
53262;BME280;39658;51.090;-1.786;2022-10-03T02:48:56;102059.91;;;6.71;100.00
53262;BME280;39658;51.090;-1.786;2022-10-03T02:54:52;102049.06;;;7.03;100.00
53262;BME280;39658;51.090;-1.786;2022-10-03T02:58:13;102050.38;;;7.10;100.00
53262;BME280;39658;51.090;-1.786;2022-10-03T03:01:04;102056.22;;;7.15;100.00
53262;BME280;39658;51.090;-1.786;2022-10-03T03:03:51;102051.56;;;7.18;100.00
53262;BME280;39658;51.090;-1.786;2022-10-03T03:06:36;102046.38;;;7.17;100.00
53262;BME280;39658;51.090;-1.786;2022-10-03T03:18:25;102029.19;;;7.37;100.00
53262;BME280;39658;51.090;-1.786;2022-10-03T03:21:14;102028.44;;;7.35;100.00
53262;BME280;39658;51.090;-1.786;2022-10-03T03:24:14;102029.41;;;7.34;100.00
53262;BME280;39658;51.090;-1.786;2022-10-03T03:26:57;102020.06;;;7.28;99.17
53262;BME280;39658;51.090;-1.786;2022-10-03T03:29:37;102014.97;;;7.25;98.06
53262;BME280;39658;51.090;-1.786;2022-10-03T03:32:13;102019.81;;;7.18;97.93
53262;BME280;39658;51.090;-1.786;2022-10-03T03:34:47;102016.06;;;7.08;98.39
53262;BME280;39658;51.090;-1.786;2022-10-03T03:37:24;102014.97;;;6.98;99.50
53262;BME280;39658;51.090;-1.786;2022-10-03T03:40:06;102005.97;;;7.01;100.00
53262;BME280;39658;51.090;-1.786;2022-10-03T03:42:52;102005.97;;;7.01;100.00
53262;BME280;39658;51.090;-1.786;2022-10-03T03:45:31;102005.56;;;7.07;100.00
53262;BME280;39658;51.090;-1.786;2022-10-03T03:48:19;102004.22;;;7.14;100.00
53262;BME280;39658;51.090;-1.786;2022-10-03T03:51:00;102002.63;;;7.11;100.00
53262;BME280;39658;51.090;-1.786;2022-10-03T03:54:00;102004.84;;;7.05;100.00
53262;BME280;39658;51.090;-1.786;2022-10-03T03:56:48;102010.78;;;7.08;100.00
53262;BME280;39658;51.090;-1.786;2022-10-03T03:59:29;102015.97;;;7.10;100.00
53262;BME280;39658;51.090;-1.786;2022-10-03T04:02:10;102020.72;;;7.05;100.00
53262;BME280;39658;51.090;-1.786;2022-10-03T04:04:48;102021.25;;;7.10;100.00
53262;BME280;39658;51.090;-1.786;2022-10-03T04:07:26;102020.41;;;7.09;100.00
53262;BME280;39658;51.090;-1.786;2022-10-03T04:10:14;102028.34;;;7.09;100.00
53262;BME280;39658;51.090;-1.786;2022-10-03T04:12:52;102027.81;;;7.04;100.00
53262;BME280;39658;51.090;-1.786;2022-10-03T04:15:46;102028.09;;;7.00;100.00
53262;BME280;39658;51.090;-1.786;2022-10-03T04:18:41;102034.94;;;6.89;100.00
53262;BME280;39658;51.090;-1.786;2022-10-03T04:21:29;102028.53;;;6.79;100.00
53262;BME280;39658;51.090;-1.786;2022-10-03T04:24:14;102029.66;;;6.75;100.00
53262;BME280;39658;51.090;-1.786;2022-10-03T04:27:02;102030.50;;;6.76;100.00
53262;BME280;39658;51.090;-1.786;2022-10-03T04:29:41;102029.97;;;6.71;100.00
53262;BME280;39658;51.090;-1.786;2022-10-03T04:32:20;102028.34;;;6.68;100.00
53262;BME280;39658;51.090;-1.786;2022-10-03T04:35:08;102022.72;;;6.60;100.00
53262;BME280;39658;51.090;-1.786;2022-10-03T04:37:45;102028.19;;;6.57;100.00
53262;BME280;39658;51.090;-1.786;2022-10-03T04:40:26;102023.31;;;6.92;100.00
53262;BME280;39658;51.090;-1.786;2022-10-03T04:43:03;102025.97;;;6.92;100.00
53262;BME280;39658;51.090;-1.786;2022-10-03T04:45:47;102021.50;;;6.93;100.00
53262;BME280;39658;51.090;-1.786;2022-10-03T04:48:22;102014.13;;;6.98;100.00
53262;BME280;39658;51.090;-1.786;2022-10-03T04:51:02;102008.94;;;6.96;100.00
53262;BME280;39658;51.090;-1.786;2022-10-03T04:53:46;102009.56;;;7.00;100.00
53262;BME280;39658;51.090;-1.786;2022-10-03T04:56:41;102015.22;;;7.08;100.00
53262;BME280;39658;51.090;-1.786;2022-10-03T04:59:27;102009.06;;;7.07;100.00
53262;BME280;39658;51.090;-1.786;2022-10-03T05:02:01;102001.34;;;7.04;100.00
53262;BME280;39658;51.090;-1.786;2022-10-03T05:04:33;102005.13;;;7.00;99.90
53262;BME280;39658;51.090;-1.786;2022-10-03T05:07:06;102009.03;;;6.95;100.00
53262;BME280;39658;51.090;-1.786;2022-10-03T05:09:42;102001.19;;;6.93;100.00
53262;BME280;39658;51.090;-1.786;2022-10-03T05:12:14;102003.44;;;7.26;100.00
53262;BME280;39658;51.090;-1.786;2022-10-03T05:14:53;102012.13;;;7.28;100.00
53262;BME280;39658;51.090;-1.786;2022-10-03T05:17:27;102009.03;;;7.21;100.00
53262;BME280;39658;51.090;-1.786;2022-10-03T05:23:01;102012.78;;;7.05;100.00
53262;BME280;39658;51.090;-1.786;2022-10-03T05:25:45;102010.81;;;6.94;100.00
53262;BME280;39658;51.090;-1.786;2022-10-03T05:28:26;102016.56;;;7.01;100.00
53262;BME280;39658;51.090;-1.786;2022-10-03T05:31:04;102012.13;;;7.01;100.00
53262;BME280;39658;51.090;-1.786;2022-10-03T05:33:44;102019.06;;;7.16;100.00
53262;BME280;39658;51.090;-1.786;2022-10-03T05:36:13;102004.13;;;7.15;100.00
53262;BME280;39658;51.090;-1.786;2022-10-03T05:42:05;102008.69;;;6.86;100.00
53262;BME280;39658;51.090;-1.786;2022-10-03T05:44:41;102002.56;;;6.72;100.00
53262;BME280;39658;51.090;-1.786;2022-10-03T05:47:12;102003.50;;;6.71;100.00
53262;BME280;39658;51.090;-1.786;2022-10-03T05:50:10;102005.09;;;6.73;100.00
53262;BME280;39658;51.090;-1.786;2022-10-03T05:52:56;101998.66;;;6.77;100.00
53262;BME280;39658;51.090;-1.786;2022-10-03T05:55:31;102005.94;;;6.88;100.00
53262;BME280;39658;51.090;-1.786;2022-10-03T05:58:29;102008.09;;;6.96;100.00
53262;BME280;39658;51.090;-1.786;2022-10-03T06:01:14;102007.38;;;7.06;100.00
53262;BME280;39658;51.090;-1.786;2022-10-03T06:04:06;102008.47;;;7.16;100.00
53262;BME280;39658;51.090;-1.786;2022-10-03T06:06:53;102004.63;;;7.35;100.00
53262;BME280;39658;51.090;-1.786;2022-10-03T06:09:58;102001.13;;;7.34;100.00
53262;BME280;39658;51.090;-1.786;2022-10-03T06:12:34;102000.91;;;7.37;100.00
53262;BME280;39658;51.090;-1.786;2022-10-03T06:15:24;102000.72;;;7.40;100.00
53262;BME280;39658;51.090;-1.786;2022-10-03T06:18:02;102006.44;;;7.47;100.00
53262;BME280;39658;51.090;-1.786;2022-10-03T06:23:56;102009.94;;;7.47;100.00
53262;BME280;39658;51.090;-1.786;2022-10-03T06:32:50;102001.50;;;7.68;100.00
53262;BME280;39658;51.090;-1.786;2022-10-03T06:44:53;102001.28;;;7.96;98.33
53262;BME280;39658;51.090;-1.786;2022-10-03T06:47:38;101997.41;;;8.02;99.33
53262;BME280;39658;51.090;-1.786;2022-10-03T06:50:34;102003.84;;;8.10;99.55
53262;BME280;39658;51.090;-1.786;2022-10-03T06:59:16;101998.94;;;8.55;98.87
53262;BME280;39658;51.090;-1.786;2022-10-03T07:02:08;102004.31;;;8.66;98.30
53262;BME280;39658;51.090;-1.786;2022-10-03T07:05:19;102013.97;;;8.67;97.64
53262;BME280;39658;51.090;-1.786;2022-10-03T07:11:41;102014.56;;;8.84;96.23
53262;BME280;39658;51.090;-1.786;2022-10-03T07:15:04;102015.94;;;8.89;96.91
53262;BME280;39658;51.090;-1.786;2022-10-03T07:17:48;102007.41;;;8.97;95.95
53262;BME280;39658;51.090;-1.786;2022-10-03T07:20:53;101993.56;;;9.04;95.59
53262;BME280;39658;51.090;-1.786;2022-10-03T07:23:43;101993.94;;;9.11;94.22
53262;BME280;39658;51.090;-1.786;2022-10-03T07:26:39;101994.88;;;9.23;94.61
53262;BME280;39658;51.090;-1.786;2022-10-03T07:29:22;102007.84;;;9.38;93.05
53262;BME280;39658;51.090;-1.786;2022-10-03T07:38:17;102001.53;;;9.63;93.94
53262;BME280;39658;51.090;-1.786;2022-10-03T07:41:19;102002.88;;;9.80;93.90
53262;BME280;39658;51.090;-1.786;2022-10-03T07:44:03;102004.47;;;9.94;93.39
53262;BME280;39658;51.090;-1.786;2022-10-03T07:47:04;102004.97;;;10.10;92.90
53262;BME280;39658;51.090;-1.786;2022-10-03T07:49:51;102001.72;;;10.18;92.59
53262;BME280;39658;51.090;-1.786;2022-10-03T07:52:42;102009.13;;;10.25;92.22
53262;BME280;39658;51.090;-1.786;2022-10-03T07:55:29;102009.00;;;10.38;90.90
53262;BME280;39658;51.090;-1.786;2022-10-03T08:01:10;102017.78;;;10.72;90.04
53262;BME280;39658;51.090;-1.786;2022-10-03T08:06:39;102032.22;;;11.13;90.55
53262;BME280;39658;51.090;-1.786;2022-10-03T08:12:58;102041.28;;;11.53;87.91
53262;BME280;39658;51.090;-1.786;2022-10-03T08:15:43;102042.56;;;11.70;87.59
53262;BME280;39658;51.090;-1.786;2022-10-03T08:18:47;102040.84;;;12.01;86.54
53262;BME280;39658;51.090;-1.786;2022-10-03T08:21:27;102035.34;;;12.33;84.95
53262;BME280;39658;51.090;-1.786;2022-10-03T08:24:15;102036.97;;;12.45;83.21
53262;BME280;39658;51.090;-1.786;2022-10-03T08:26:58;102041.81;;;12.71;80.52
53262;BME280;39658;51.090;-1.786;2022-10-03T08:32:34;102035.00;;;12.97;78.85
53262;BME280;39658;51.090;-1.786;2022-10-03T08:35:29;102040.78;;;13.12;78.60
53262;BME280;39658;51.090;-1.786;2022-10-03T08:38:24;102027.78;;;13.28;79.70
53262;BME280;39658;51.090;-1.786;2022-10-03T08:41:31;102033.97;;;13.48;77.86
53262;BME280;39658;51.090;-1.786;2022-10-03T08:47:17;102020.44;;;13.78;75.77
53262;BME280;39658;51.090;-1.786;2022-10-03T08:50:31;102020.44;;;14.25;75.79
53262;BME280;39658;51.090;-1.786;2022-10-03T08:53:28;102014.03;;;14.73;72.28
53262;BME280;39658;51.090;-1.786;2022-10-03T08:56:02;102014.59;;;15.22;71.04
53262;BME280;39658;51.090;-1.786;2022-10-03T09:02:17;102003.63;;;16.28;67.11
53262;BME280;39658;51.090;-1.786;2022-10-03T09:05:24;102016.22;;;16.62;64.16
53262;BME280;39658;51.090;-1.786;2022-10-03T09:08:35;102014.16;;;16.82;64.77
53262;BME280;39658;51.090;-1.786;2022-10-03T09:14:40;102016.19;;;17.04;63.47
53262;BME280;39658;51.090;-1.786;2022-10-03T09:23:40;102008.69;;;17.32;63.18
53262;BME280;39658;51.090;-1.786;2022-10-03T09:29:33;102011.34;;;19.68;57.40
53262;BME280;39658;51.090;-1.786;2022-10-03T09:32:31;102010.47;;;20.64;53.28
53262;BME280;39658;51.090;-1.786;2022-10-03T09:35:26;102002.31;;;22.96;47.21
53262;BME280;39658;51.090;-1.786;2022-10-03T09:44:47;101993.19;;;19.92;55.80
53262;BME280;39658;51.090;-1.786;2022-10-03T09:47:47;101996.81;;;21.23;52.37
53262;BME280;39658;51.090;-1.786;2022-10-03T09:51:04;101994.66;;;21.40;52.42
53262;BME280;39658;51.090;-1.786;2022-10-03T09:56:47;101986.56;;;21.04;54.36
53262;BME280;39658;51.090;-1.786;2022-10-03T09:59:32;101982.00;;;19.80;56.34
53262;BME280;39658;51.090;-1.786;2022-10-03T10:08:26;101976.00;;;21.80;52.89
53262;BME280;39658;51.090;-1.786;2022-10-03T10:11:14;101977.59;;;21.68;52.32
53262;BME280;39658;51.090;-1.786;2022-10-03T10:20:01;101970.75;;;24.27;46.71
53262;BME280;39658;51.090;-1.786;2022-10-03T10:23:18;101974.34;;;24.66;45.02
53262;BME280;39658;51.090;-1.786;2022-10-03T10:29:22;101970.16;;;24.05;47.39
53262;BME280;39658;51.090;-1.786;2022-10-03T10:35:50;101960.78;;;25.54;45.02
53262;BME280;39658;51.090;-1.786;2022-10-03T10:38:38;101959.31;;;26.86;40.38
53262;BME280;39658;51.090;-1.786;2022-10-03T10:41:50;101956.81;;;26.84;40.00
53262;BME280;39658;51.090;-1.786;2022-10-03T11:00:13;101959.22;;;20.78;56.31
53262;BME280;39658;51.090;-1.786;2022-10-03T11:12:38;101941.59;;;19.72;59.18
53262;BME280;39658;51.090;-1.786;2022-10-03T11:15:52;101940.38;;;19.14;60.79
53262;BME280;39658;51.090;-1.786;2022-10-03T11:19:06;101935.66;;;18.93;62.16
53262;BME280;39658;51.090;-1.786;2022-10-03T11:28:24;101929.84;;;19.80;60.28
53262;BME280;39658;51.090;-1.786;2022-10-03T11:31:27;101930.22;;;19.62;60.51
53262;BME280;39658;51.090;-1.786;2022-10-03T11:37:31;101930.69;;;19.28;62.36
53262;BME280;39658;51.090;-1.786;2022-10-03T11:40:12;101922.34;;;18.92;63.02
53262;BME280;39658;51.090;-1.786;2022-10-03T11:42:52;101924.91;;;18.62;64.27
53262;BME280;39658;51.090;-1.786;2022-10-03T11:45:27;101922.41;;;19.67;60.43
53262;BME280;39658;51.090;-1.786;2022-10-03T11:48:12;101920.28;;;20.57;56.18
53262;BME280;39658;51.090;-1.786;2022-10-03T11:50:49;101919.41;;;21.98;50.03
53262;BME280;39658;51.090;-1.786;2022-10-03T11:53:24;101909.41;;;23.34;48.19
53262;BME280;39658;51.090;-1.786;2022-10-03T11:56:04;101917.56;;;23.27;47.21
53262;BME280;39658;51.090;-1.786;2022-10-03T11:58:58;101900.09;;;23.94;44.31
53262;BME280;39658;51.090;-1.786;2022-10-03T12:01:38;101896.22;;;23.31;45.24
53262;BME280;39658;51.090;-1.786;2022-10-03T12:04:17;101897.63;;;21.22;51.23
53262;BME280;39658;51.090;-1.786;2022-10-03T12:06:56;101899.56;;;21.07;51.80
53262;BME280;39658;51.090;-1.786;2022-10-03T12:09:54;101903.19;;;21.36;50.54
53262;BME280;39658;51.090;-1.786;2022-10-03T12:12:32;101893.59;;;22.50;47.91
53262;BME280;39658;51.090;-1.786;2022-10-03T12:15:11;101891.88;;;22.36;48.08
53262;BME280;39658;51.090;-1.786;2022-10-03T12:17:48;101889.00;;;22.50;48.22
53262;BME280;39658;51.090;-1.786;2022-10-03T12:20:23;101883.28;;;22.87;48.28
53262;BME280;39658;51.090;-1.786;2022-10-03T12:22:57;101880.13;;;23.03;47.77
53262;BME280;39658;51.090;-1.786;2022-10-03T12:25:29;101874.44;;;22.78;47.76
53262;BME280;39658;51.090;-1.786;2022-10-03T12:28:03;101872.00;;;23.29;46.43
53262;BME280;39658;51.090;-1.786;2022-10-03T12:30:42;101867.81;;;22.94;46.81
53262;BME280;39658;51.090;-1.786;2022-10-03T12:33:33;101860.63;;;21.99;47.42
53262;BME280;39658;51.090;-1.786;2022-10-03T12:36:08;101867.25;;;21.89;48.26
53262;BME280;39658;51.090;-1.786;2022-10-03T12:38:45;101863.75;;;21.61;48.56
53262;BME280;39658;51.090;-1.786;2022-10-03T12:41:24;101863.44;;;21.43;48.76
53262;BME280;39658;51.090;-1.786;2022-10-03T12:44:06;101863.28;;;20.80;50.79
53262;BME280;39658;51.090;-1.786;2022-10-03T12:46:44;101861.03;;;20.26;53.21
53262;BME280;39658;51.090;-1.786;2022-10-03T12:49:24;101855.50;;;20.34;53.31
53262;BME280;39658;51.090;-1.786;2022-10-03T12:51:56;101856.28;;;20.28;53.77
53262;BME280;39658;51.090;-1.786;2022-10-03T12:54:38;101864.63;;;19.97;54.46
53262;BME280;39658;51.090;-1.786;2022-10-03T12:57:38;101850.38;;;19.59;55.05
53262;BME280;39658;51.090;-1.786;2022-10-03T13:00:17;101850.69;;;19.64;54.63
53262;BME280;39658;51.090;-1.786;2022-10-03T13:02:55;101855.56;;;19.46;56.02
53262;BME280;39658;51.090;-1.786;2022-10-03T13:05:37;101841.91;;;19.33;56.95
53262;BME280;39658;51.090;-1.786;2022-10-03T13:08:21;101839.56;;;19.45;56.16
53262;BME280;39658;51.090;-1.786;2022-10-03T13:10:55;101833.22;;;19.52;56.27
53262;BME280;39658;51.090;-1.786;2022-10-03T13:13:30;101826.69;;;19.17;56.85
53262;BME280;39658;51.090;-1.786;2022-10-03T13:16:20;101824.63;;;19.71;57.22
53262;BME280;39658;51.090;-1.786;2022-10-03T13:18:52;101825.22;;;19.44;55.65
53262;BME280;39658;51.090;-1.786;2022-10-03T13:21:46;101811.88;;;19.65;54.92
53262;BME280;39658;51.090;-1.786;2022-10-03T13:24:24;101814.09;;;19.62;52.97
53262;BME280;39658;51.090;-1.786;2022-10-03T13:27:02;101818.25;;;19.50;52.88
53262;BME280;39658;51.090;-1.786;2022-10-03T13:29:33;101814.44;;;19.29;54.67
53262;BME280;39658;51.090;-1.786;2022-10-03T13:32:09;101809.88;;;19.45;55.58
53262;BME280;39658;51.090;-1.786;2022-10-03T13:34:56;101803.63;;;19.44;55.01
53262;BME280;39658;51.090;-1.786;2022-10-03T13:37:58;101810.44;;;19.84;55.31
53262;BME280;39658;51.090;-1.786;2022-10-03T13:40:33;101794.91;;;19.57;54.25
53262;BME280;39658;51.090;-1.786;2022-10-03T13:43:02;101797.13;;;19.38;55.58
53262;BME280;39658;51.090;-1.786;2022-10-03T13:45:37;101796.19;;;19.46;55.57
53262;BME280;39658;51.090;-1.786;2022-10-03T13:48:07;101791.75;;;19.53;56.50
53262;BME280;39658;51.090;-1.786;2022-10-03T13:50:44;101791.88;;;19.07;57.09
53262;BME280;39658;51.090;-1.786;2022-10-03T13:53:21;101786.94;;;19.11;57.35
53262;BME280;39658;51.090;-1.786;2022-10-03T13:55:50;101785.63;;;19.07;57.89
53262;BME280;39658;51.090;-1.786;2022-10-03T13:58:40;101783.59;;;19.09;58.09
53262;BME280;39658;51.090;-1.786;2022-10-03T14:01:29;101785.13;;;19.26;58.36
53262;BME280;39658;51.090;-1.786;2022-10-03T14:04:30;101780.91;;;19.09;58.16
53262;BME280;39658;51.090;-1.786;2022-10-03T14:07:09;101787.22;;;19.16;57.94
53262;BME280;39658;51.090;-1.786;2022-10-03T14:09:57;101779.97;;;19.17;58.69
53262;BME280;39658;51.090;-1.786;2022-10-03T14:12:37;101776.63;;;19.15;59.13
53262;BME280;39658;51.090;-1.786;2022-10-03T14:15:18;101776.63;;;19.15;59.33
53262;BME280;39658;51.090;-1.786;2022-10-03T14:17:55;101774.69;;;19.23;58.76
53262;BME280;39658;51.090;-1.786;2022-10-03T14:20:35;101768.25;;;19.39;59.07
53262;BME280;39658;51.090;-1.786;2022-10-03T14:23:15;101781.38;;;19.42;58.69
53262;BME280;39658;51.090;-1.786;2022-10-03T14:25:51;101772.66;;;19.25;59.04
53262;BME280;39658;51.090;-1.786;2022-10-03T14:28:25;101766.66;;;19.15;60.18
53262;BME280;39658;51.090;-1.786;2022-10-03T14:31:01;101766.56;;;19.08;59.62
53262;BME280;39658;51.090;-1.786;2022-10-03T14:33:34;101772.25;;;18.99;60.29
53262;BME280;39658;51.090;-1.786;2022-10-03T14:36:15;101769.09;;;18.72;61.48
53262;BME280;39658;51.090;-1.786;2022-10-03T14:38:53;101765.75;;;18.70;60.76
53262;BME280;39658;51.090;-1.786;2022-10-03T14:41:38;101764.38;;;18.29;62.61
53262;BME280;39658;51.090;-1.786;2022-10-03T14:44:09;101762.69;;;18.28;62.51
53262;BME280;39658;51.090;-1.786;2022-10-03T14:46:41;101756.78;;;18.09;63.63
53262;BME280;39658;51.090;-1.786;2022-10-03T14:49:16;101763.00;;;18.10;64.28
53262;BME280;39658;51.090;-1.786;2022-10-03T14:51:48;101751.88;;;18.13;64.98
53262;BME280;39658;51.090;-1.786;2022-10-03T14:54:19;101752.28;;;18.02;65.82
53262;BME280;39658;51.090;-1.786;2022-10-03T14:56:49;101748.28;;;18.21;66.17
53262;BME280;39658;51.090;-1.786;2022-10-03T14:59:19;101743.84;;;18.28;65.94
53262;BME280;39658;51.090;-1.786;2022-10-03T15:01:48;101742.34;;;18.25;66.14
53262;BME280;39658;51.090;-1.786;2022-10-03T15:04:25;101728.44;;;18.36;66.76
53262;BME280;39658;51.090;-1.786;2022-10-03T15:06:55;101737.72;;;18.34;66.26
53262;BME280;39658;51.090;-1.786;2022-10-03T15:09:29;101742.09;;;18.35;66.16
53262;BME280;39658;51.090;-1.786;2022-10-03T15:12:03;101727.56;;;18.44;65.73
53262;BME280;39658;51.090;-1.786;2022-10-03T15:14:35;101726.91;;;18.42;66.01
53262;BME280;39658;51.090;-1.786;2022-10-03T15:17:06;101721.34;;;18.43;65.93
53262;BME280;39658;51.090;-1.786;2022-10-03T15:19:44;101719.47;;;18.44;65.58
53262;BME280;39658;51.090;-1.786;2022-10-03T15:22:22;101713.94;;;18.37;66.48
53262;BME280;39658;51.090;-1.786;2022-10-03T15:24:53;101710.34;;;17.99;65.88
53262;BME280;39658;51.090;-1.786;2022-10-03T15:27:23;101714.13;;;17.67;67.18
53262;BME280;39658;51.090;-1.786;2022-10-03T15:29:54;101704.72;;;17.86;67.42
53262;BME280;39658;51.090;-1.786;2022-10-03T15:32:24;101706.88;;;17.68;66.99
53262;BME280;39658;51.090;-1.786;2022-10-03T15:34:56;101708.22;;;17.55;67.53
53262;BME280;39658;51.090;-1.786;2022-10-03T15:37:28;101700.56;;;17.44;68.60
53262;BME280;39658;51.090;-1.786;2022-10-03T15:39:59;101695.22;;;17.36;68.80
53262;BME280;39658;51.090;-1.786;2022-10-03T15:42:30;101688.66;;;17.39;69.73
53262;BME280;39658;51.090;-1.786;2022-10-03T15:45:01;101689.34;;;17.33;70.09
53262;BME280;39658;51.090;-1.786;2022-10-03T15:47:31;101685.34;;;17.29;70.34
53262;BME280;39658;51.090;-1.786;2022-10-03T15:50:01;101695.78;;;17.23;70.91
53262;BME280;39658;51.090;-1.786;2022-10-03T15:52:35;101680.78;;;17.29;71.21
53262;BME280;39658;51.090;-1.786;2022-10-03T15:55:06;101685.34;;;17.29;71.44
53262;BME280;39658;51.090;-1.786;2022-10-03T15:57:44;101671.91;;;17.20;72.98
53262;BME280;39658;51.090;-1.786;2022-10-03T16:00:20;101662.03;;;17.05;73.48
53262;BME280;39658;51.090;-1.786;2022-10-03T16:02:54;101667.47;;;16.97;74.06
53262;BME280;39658;51.090;-1.786;2022-10-03T16:05:26;101655.56;;;16.91;74.52
53262;BME280;39658;51.090;-1.786;2022-10-03T16:07:57;101652.38;;;16.87;75.16
53262;BME280;39658;51.090;-1.786;2022-10-03T16:10:28;101654.22;;;16.87;75.90
53262;BME280;39658;51.090;-1.786;2022-10-03T16:13:01;101648.53;;;16.82;76.12
53262;BME280;39658;51.090;-1.786;2022-10-03T16:15:46;101651.88;;;16.76;76.66
53262;BME280;39658;51.090;-1.786;2022-10-03T16:18:43;101642.13;;;16.75;77.24
53262;BME280;39658;51.090;-1.786;2022-10-03T16:21:15;101650.38;;;16.73;77.37
53262;BME280;39658;51.090;-1.786;2022-10-03T16:23:45;101646.84;;;16.65;77.94
53262;BME280;39658;51.090;-1.786;2022-10-03T16:26:19;101636.78;;;16.58;78.31
53262;BME280;39658;51.090;-1.786;2022-10-03T16:28:51;101634.28;;;16.57;78.70
53262;BME280;39658;51.090;-1.786;2022-10-03T16:31:25;101636.94;;;16.57;78.64
53262;BME280;39658;51.090;-1.786;2022-10-03T16:33:58;101633.09;;;16.59;78.82
53262;BME280;39658;51.090;-1.786;2022-10-03T16:36:30;101630.09;;;16.46;79.52
53262;BME280;39658;51.090;-1.786;2022-10-03T16:38:59;101627.75;;;16.43;79.80